Time;durP1;ratioP1;P1;durP2;ratioP2;P2;SDS_P1;SDS_P2;PMS_P1;PMS_P2;Temp;Humidity;BMP_temperature;BMP_pressure;BME280_temperature;BME280_humidity;BME280_pressure;Samples;Min_cycle;Max_cycle;Signal;HPM_P1;HPM_P2
2023/01/09 00:03:47;;;;;;;10.87;9.97;;;8.30;43.90;;;;;;10576133;27;20241;-71
2023/01/09 00:08:50;;;;;;;10.33;9.43;;;8.30;43.90;;;;;;10572193;28;20246;-71
2023/01/09 00:13:55;;;;;;;9.03;8.33;;;8.30;44.00;;;;;;10572410;28;20317;-71
2023/01/09 00:18:59;;;;;;;10.67;9.77;;;8.30;44.20;;;;;;10573271;28;20650;-71
2023/01/09 00:24:03;;;;;;;12.97;11.83;;;8.20;43.90;;;;;;10586295;27;20318;-70
2023/01/09 00:29:10;;;;;;;13.43;12.13;;;8.20;43.90;;;;;;10586342;27;20229;-71
2023/01/09 00:34:13;;;;;;;13.70;12.40;;;8.20;44.00;;;;;;10608938;27;20897;-71
2023/01/09 00:39:16;;;;;;;14.10;12.77;;;8.20;43.90;;;;;;10587338;27;20243;-71
2023/01/09 00:44:24;;;;;;;13.60;12.40;;;8.20;44.00;;;;;;10585663;27;20232;-71
2023/01/09 00:49:31;;;;;;;12.07;11.03;;;8.20;44.30;;;;;;10582723;27;20246;-71
2023/01/09 00:54:34;;;;;;;13.50;12.30;;;8.20;44.30;;;;;;10582941;27;20245;-69
2023/01/09 00:59:39;;;;;;;14.43;13.07;;;8.20;44.20;;;;;;10579306;27;20242;-69
2023/01/09 01:10:03;;;;;;;13.93;12.67;;;8.10;44.00;;;;;;10578499;27;20230;-69
2023/01/09 01:15:09;;;;;;;14.53;13.23;;;8.10;44.20;;;;;;10577470;27;20229;-69
2023/01/09 01:20:15;;;;;;;15.20;13.67;;;8.00;44.60;;;;;;10579640;27;20243;-69
2023/01/09 01:25:18;;;;;;;14.43;13.13;;;8.00;44.40;;;;;;10577292;27;20667;-69
2023/01/09 01:30:23;;;;;;;15.07;13.67;;;8.00;44.10;;;;;;10577362;27;20250;-69
2023/01/09 01:35:26;;;;;;;15.20;13.80;;;8.00;44.40;;;;;;10572333;27;20622;-69
2023/01/09 01:40:30;;;;;;;14.40;13.10;;;7.90;44.40;;;;;;10570808;27;20235;-69
2023/01/09 01:45:34;;;;;;;14.50;13.10;;;7.90;44.40;;;;;;10570452;27;20252;-69
2023/01/09 01:50:43;;;;;;;14.37;13.07;;;7.90;44.70;;;;;;10571793;28;20610;-69
2023/01/09 01:55:53;;;;;;;14.50;13.10;;;7.90;44.90;;;;;;10570932;28;20258;-69
2023/01/09 02:00:58;;;;;;;13.63;12.43;;;7.90;44.90;;;;;;10569969;28;20233;-70
2023/01/09 02:06:03;;;;;;;12.23;11.13;;;7.90;44.90;;;;;;10570795;28;20799;-69
2023/01/09 02:11:06;;;;;;;11.07;10.10;;;7.90;44.80;;;;;;10569750;28;20231;-69
2023/01/09 02:16:24;;;;;;;12.33;11.20;;;8.00;45.00;;;;;;10571165;28;20239;-69
2023/01/09 02:21:42;;;;;;;11.63;10.57;;;8.00;45.20;;;;;;10569637;28;20230;-69
2023/01/09 02:27:13;;;;;;;11.13;10.13;;;8.00;45.20;;;;;;10568337;27;20234;-69
2023/01/09 02:32:32;;;;;;;9.77;8.87;;;8.00;45.30;;;;;;10562090;28;20246;-69
2023/01/09 02:37:43;;;;;;;11.33;10.33;;;8.00;45.20;;;;;;10567843;28;20239;-69
2023/01/09 02:42:48;;;;;;;9.80;8.90;;;8.00;45.20;;;;;;10568507;28;20239;-69
2023/01/09 02:47:52;;;;;;;11.23;10.23;;;8.00;45.20;;;;;;10569346;27;20226;-69
2023/01/09 02:53:38;;;;;;;10.43;9.43;;;8.00;45.20;;;;;;10568433;28;20291;-69
2023/01/09 02:58:56;;;;;;;11.00;10.00;;;7.90;45.60;;;;;;10568877;28;20242;-69
2023/01/09 03:04:11;;;;;;;10.70;9.80;;;8.00;45.50;;;;;;10567936;28;20245;-69
2023/01/09 03:09:18;;;;;;;9.90;9.10;;;8.00;45.40;;;;;;10568470;28;20722;-69
2023/01/09 03:14:25;;;;;;;11.33;10.33;;;8.00;45.20;;;;;;10567900;28;20235;-69
2023/01/09 03:19:32;;;;;;;10.73;9.70;;;8.00;45.20;;;;;;10567939;28;20242;-68
2023/01/09 03:24:37;;;;;;;9.90;9.00;;;8.00;45.20;;;;;;10567696;28;20243;-69
2023/01/09 03:29:40;;;;;;;9.47;8.63;;;8.00;45.20;;;;;;10565869;28;20416;-68
2023/01/09 03:34:45;;;;;;;10.40;9.47;;;8.00;45.20;;;;;;10566369;28;20230;-68
2023/01/09 03:39:48;;;;;;;9.03;8.13;;;8.10;45.30;;;;;;10565504;27;20234;-69
2023/01/09 03:44:51;;;;;;;9.17;8.37;;;8.10;45.30;;;;;;10567033;28;20660;-68
2023/01/09 03:49:56;;;;;;;8.80;8.10;;;8.20;45.30;;;;;;10566607;28;20223;-68
2023/01/09 03:54:59;;;;;;;9.37;8.57;;;8.20;45.30;;;;;;10565691;28;20234;-68
2023/01/09 04:00:03;;;;;;;8.50;7.70;;;8.20;45.30;;;;;;10566017;28;20235;-68
2023/01/09 04:05:08;;;;;;;7.77;7.13;;;8.30;45.40;;;;;;10563844;28;20248;-68
2023/01/09 04:10:12;;;;;;;7.03;6.43;;;8.20;46.00;;;;;;10565946;28;20242;-68
2023/01/09 04:15:15;;;;;;;8.73;7.93;;;8.20;45.40;;;;;;10566477;28;20240;-68
2023/01/09 04:26:41;;;;;;;7.37;6.73;;;8.20;46.00;;;;;;10573928;28;20293;-70
2023/01/09 04:31:45;;;;;;;7.67;6.97;;;8.10;45.40;;;;;;10574101;28;20227;-70
2023/01/09 04:36:48;;;;;;;7.43;6.80;;;8.10;45.30;;;;;;10584656;27;20231;-70
2023/01/09 04:41:52;;;;;;;7.27;6.43;;;8.10;45.40;;;;;;10561849;28;20230;-70
2023/01/09 04:46:58;;;;;;;7.03;6.43;;;8.00;45.90;;;;;;10571072;28;20253;-67
2023/01/09 04:52:01;;;;;;;6.67;6.00;;;8.10;45.90;;;;;;10563771;28;20251;-68
2023/01/09 04:57:06;;;;;;;6.63;6.03;;;8.10;45.90;;;;;;10562928;28;20230;-67
2023/01/09 05:02:10;;;;;;;7.73;6.93;;;8.10;46.30;;;;;;10563791;28;20615;-67
2023/01/09 05:07:13;;;;;;;7.70;7.00;;;8.20;46.20;;;;;;10565111;28;20743;-67
2023/01/09 05:12:18;;;;;;;8.13;7.33;;;8.20;46.10;;;;;;10572091;27;21193;-67
2023/01/09 05:17:21;;;;;;;9.73;8.73;;;8.30;46.30;;;;;;10578984;22;20223;-70
2023/01/09 05:22:24;;;;;;;9.90;8.90;;;8.30;46.10;;;;;;10556399;28;20231;-70
2023/01/09 05:27:29;;;;;;;6.77;6.17;;;8.40;46.00;;;;;;10543723;28;20231;-69
2023/01/09 05:32:32;;;;;;;10.00;9.10;;;8.40;46.00;;;;;;10531470;28;20231;-70
2023/01/09 05:37:35;;;;;;;7.13;6.43;;;8.40;45.90;;;;;;10530004;28;20235;-72
2023/01/09 05:42:40;;;;;;;6.37;5.77;;;8.30;46.40;;;;;;10528559;28;20251;-72
2023/01/09 05:47:44;;;;;;;5.73;5.23;;;8.30;47.80;;;;;;10526780;28;20236;-72
2023/01/09 05:52:47;;;;;;;4.20;3.90;;;8.50;48.30;;;;;;10531287;28;20907;-70
2023/01/09 05:57:52;;;;;;;3.23;2.93;;;8.60;48.30;;;;;;10532287;28;20231;-71
2023/01/09 06:02:55;;;;;;;2.80;2.60;;;8.80;49.00;;;;;;10533149;28;20239;-71
2023/01/09 06:07:58;;;;;;;2.80;2.60;;;9.00;48.60;;;;;;10537911;28;20232;-70
2023/01/09 06:13:03;;;;;;;2.40;2.20;;;9.20;48.70;;;;;;10527857;28;20642;-70
2023/01/09 06:18:06;;;;;;;2.30;2.10;;;9.40;48.90;;;;;;10529528;28;20249;-74
2023/01/09 06:23:09;;;;;;;1.60;1.50;;;9.50;48.50;;;;;;10526835;28;20228;-71
2023/01/09 06:28:16;;;;;;;1.30;1.30;;;9.60;48.40;;;;;;10522873;28;20331;-71
2023/01/09 06:33:19;;;;;;;1.70;1.60;;;9.70;48.60;;;;;;10515414;28;20231;-71
2023/01/09 06:38:22;;;;;;;1.60;1.50;;;9.80;48.20;;;;;;10525070;28;20242;-72
2023/01/09 06:43:27;;;;;;;1.43;1.33;;;9.90;48.00;;;;;;10524911;28;20234;-69
2023/01/09 06:48:30;;;;;;;0.90;0.90;;;9.90;47.90;;;;;;10522787;28;20605;-69
2023/01/09 06:53:33;;;;;;;1.10;1.10;;;10.00;46.70;;;;;;10522843;28;20266;-69
2023/01/09 06:58:38;;;;;;;2.20;1.83;;;10.10;46.80;;;;;;10519220;28;20683;-72
2023/01/09 07:03:41;;;;;;;2.00;1.80;;;10.10;46.70;;;;;;10522385;28;20678;-72
2023/01/09 07:08:45;;;;;;;1.13;1.00;;;10.10;46.50;;;;;;10521673;28;20245;-72
2023/01/09 07:13:51;;;;;;;1.30;1.20;;;10.10;46.50;;;;;;10522512;28;20219;-72
2023/01/09 07:18:54;;;;;;;1.10;1.00;;;10.10;46.60;;;;;;10520769;28;20219;-72
2023/01/09 07:23:57;;;;;;;1.17;1.10;;;10.10;46.40;;;;;;10519007;28;20216;-72
2023/01/09 07:29:01;;;;;;;0.63;0.63;;;10.10;46.30;;;;;;10519243;28;20234;-71
2023/01/09 07:34:05;;;;;;;1.20;1.10;;;10.00;46.10;;;;;;10519529;28;20223;-71
2023/01/09 07:39:08;;;;;;;0.80;0.77;;;10.00;46.10;;;;;;10517052;28;20259;-71
2023/01/09 07:44:13;;;;;;;0.70;0.70;;;10.00;45.90;;;;;;10525360;28;20247;-72
2023/01/09 07:49:16;;;;;;;0.53;0.53;;;9.90;46.70;;;;;;10523306;28;20235;-72
2023/01/09 07:54:19;;;;;;;1.77;0.90;;;9.90;46.30;;;;;;10514003;28;20231;-72
2023/01/09 07:59:25;;;;;;;1.43;1.30;;;9.90;46.40;;;;;;10520584;28;20236;-72
2023/01/09 08:04:28;;;;;;;0.80;0.80;;;9.90;46.30;;;;;;10523414;28;20316;-72
2023/01/09 08:09:31;;;;;;;1.10;0.80;;;9.90;46.20;;;;;;10523767;28;20730;-72
2023/01/09 08:14:35;;;;;;;1.80;0.90;;;9.80;46.20;;;;;;10524926;28;20216;-72
2023/01/09 08:19:39;;;;;;;0.80;0.80;;;9.90;46.20;;;;;;10521990;28;20235;-72
2023/01/09 08:24:42;;;;;;;0.97;0.97;;;9.80;46.10;;;;;;10521208;28;20603;-72
2023/01/09 08:29:46;;;;;;;0.90;0.90;;;9.80;46.00;;;;;;10522510;28;20231;-72
2023/01/09 08:34:49;;;;;;;0.70;0.70;;;9.80;45.80;;;;;;10524476;28;20624;-73
2023/01/09 08:39:53;;;;;;;0.70;0.70;;;9.70;45.90;;;;;;10525167;28;20231;-73
2023/01/09 08:50:18;;;;;;;1.53;0.70;;;9.70;45.70;;;;;;10531187;28;20678;-73
2023/01/09 08:55:21;;;;;;;1.13;0.70;;;9.70;45.70;;;;;;10527034;28;20235;-73
2023/01/09 09:00:26;;;;;;;0.97;0.60;;;9.70;45.70;;;;;;10526756;28;20262;-73
2023/01/09 09:05:30;;;;;;;0.80;0.80;;;9.70;46.30;;;;;;10527431;28;20232;-73
2023/01/09 09:10:33;;;;;;;0.80;0.80;;;9.70;45.50;;;;;;10528556;28;20224;-73
2023/01/09 09:15:38;;;;;;;0.60;0.60;;;9.70;45.40;;;;;;10529944;28;20242;-73
2023/01/09 09:20:41;;;;;;;1.10;0.70;;;9.70;45.40;;;;;;10525042;28;20224;-73
2023/01/09 09:25:44;;;;;;;1.63;0.73;;;9.70;45.40;;;;;;10528589;28;20240;-73
2023/01/09 09:30:48;;;;;;;0.60;0.60;;;9.70;45.40;;;;;;10521706;28;20273;-73
2023/01/09 09:35:52;;;;;;;1.60;1.10;;;9.70;45.30;;;;;;10521336;28;20228;-69
2023/01/09 09:46:53;;;;;;;1.27;1.17;;;9.70;45.20;;;;;;10527996;28;20227;-69
2023/01/09 09:52:03;;;;;;;1.53;0.90;;;9.80;45.30;;;;;;10527681;28;20236;-70
2023/01/09 09:57:14;;;;;;;1.17;0.90;;;9.80;45.30;;;;;;10514888;28;20239;-70
2023/01/09 10:02:26;;;;;;;0.60;0.60;;;9.80;45.00;;;;;;10516894;28;20232;-69
2023/01/09 10:07:35;;;;;;;0.80;0.80;;;9.90;45.60;;;;;;10520880;28;20251;-73
2023/01/09 10:12:43;;;;;;;0.80;0.80;;;9.90;45.00;;;;;;10521770;28;20231;-73
2023/01/09 10:18:01;;;;;;;1.40;1.30;;;9.90;44.90;;;;;;10509606;28;20227;-73
2023/01/09 10:23:25;;;;;;;2.20;1.67;;;9.90;44.70;;;;;;10513970;28;20234;-72
2023/01/09 10:28:50;;;;;;;1.40;1.20;;;9.90;44.20;;;;;;10515409;28;20235;-73
2023/01/09 10:34:06;;;;;;;1.67;0.90;;;9.90;43.80;;;;;;10511326;28;20228;-73
2023/01/09 10:39:16;;;;;;;2.27;1.40;;;10.00;43.30;;;;;;10524266;28;20235;-73
2023/01/09 10:44:21;;;;;;;1.63;0.80;;;10.00;43.30;;;;;;10517451;28;20231;-69
2023/01/09 10:49:26;;;;;;;1.93;1.13;;;10.00;43.10;;;;;;10515964;28;20239;-72
2023/01/09 10:54:30;;;;;;;1.97;0.83;;;10.00;42.80;;;;;;10516830;28;20582;-72
2023/01/09 10:59:33;;;;;;;1.43;1.03;;;10.00;42.90;;;;;;10517896;28;20232;-71
2023/01/09 11:04:39;;;;;;;0.80;0.70;;;10.00;42.90;;;;;;10515403;28;20223;-71
2023/01/09 11:09:56;;;;;;;1.73;1.10;;;10.10;42.50;;;;;;10518460;28;20246;-71
2023/01/09 11:15:28;;;;;;;1.97;1.10;;;10.10;42.20;;;;;;10511158;28;20230;-71
2023/01/09 11:20:33;;;;;;;1.97;1.33;;;10.10;42.00;;;;;;10514375;28;20219;-69
2023/01/09 11:25:51;;;;;;;3.23;2.47;;;10.20;42.20;;;;;;10511448;28;20695;-69
2023/01/09 11:30:58;;;;;;;4.80;3.53;;;10.20;42.60;;;;;;10509379;28;20640;-69
2023/01/09 11:36:06;;;;;;;1.60;1.47;;;10.10;42.40;;;;;;10513486;28;20289;-69
2023/01/09 11:41:18;;;;;;;2.27;1.50;;;10.30;42.00;;;;;;10518424;28;20267;-69
2023/01/09 11:46:33;;;;;;;3.37;1.77;;;10.40;41.90;;;;;;10523160;28;20239;-71
2023/01/09 11:51:37;;;;;;;1.50;1.00;;;10.40;41.70;;;;;;10517253;28;20226;-71
2023/01/09 11:56:41;;;;;;;1.10;1.00;;;10.40;41.70;;;;;;10518985;28;20232;-72
2023/01/09 12:02:19;;;;;;;1.43;0.80;;;10.40;41.90;;;;;;10514209;28;20492;-71
2023/01/09 12:08:05;;;;;;;2.73;1.00;;;10.40;41.30;;;;;;10514201;28;20277;-71
2023/01/09 12:13:19;;;;;;;2.57;0.80;;;10.40;41.70;;;;;;10516984;28;20226;-70
2023/01/09 12:18:37;;;;;;;1.77;1.10;;;10.40;41.40;;;;;;10513812;28;20243;-69
2023/01/09 12:24:08;;;;;;;3.03;1.10;;;10.40;41.20;;;;;;10513942;28;20715;-73
2023/01/09 12:29:36;;;;;;;3.83;1.60;;;10.50;40.80;;;;;;10516903;28;20223;-70
2023/01/09 12:34:54;;;;;;;2.77;1.00;;;10.50;41.40;;;;;;10511785;28;20733;-69
2023/01/09 12:40:12;;;;;;;2.20;1.17;;;10.60;41.00;;;;;;10510870;28;20253;-69
2023/01/09 12:45:36;;;;;;;1.60;0.83;;;10.70;41.20;;;;;;10513916;28;20238;-69
2023/01/09 12:50:57;;;;;;;2.83;1.00;;;10.70;40.90;;;;;;10512161;28;20314;-69
2023/01/09 12:56:07;;;;;;;3.07;1.20;;;10.80;40.60;;;;;;10514296;28;20239;-69
2023/01/09 13:01:17;;;;;;;2.13;1.13;;;10.80;40.60;;;;;;10512627;28;20244;-69
2023/01/09 13:06:23;;;;;;;3.77;1.40;;;10.80;40.80;;;;;;10511057;28;20231;-73
2023/01/09 13:11:34;;;;;;;2.27;0.90;;;10.80;41.20;;;;;;10513460;28;20232;-73
2023/01/09 13:16:43;;;;;;;2.23;1.30;;;10.80;40.60;;;;;;10512536;28;20244;-73
2023/01/09 13:21:47;;;;;;;3.17;1.50;;;10.80;40.60;;;;;;10518577;28;20232;-73
2023/01/09 13:26:55;;;;;;;3.37;2.30;;;10.80;41.30;;;;;;10515218;28;20238;-73
2023/01/09 13:32:17;;;;;;;2.83;1.50;;;10.80;40.60;;;;;;10522451;28;20220;-73
2023/01/09 13:37:23;;;;;;;2.70;1.53;;;10.80;40.40;;;;;;10519234;28;20228;-73
2023/01/09 13:42:45;;;;;;;3.17;1.70;;;10.90;40.70;;;;;;10519565;28;20665;-73
2023/01/09 13:48:24;;;;;;;3.13;1.27;;;11.00;40.80;;;;;;10524219;28;20478;-73
2023/01/09 13:53:47;;;;;;;1.53;1.13;;;11.00;40.20;;;;;;10525789;28;20584;-70
2023/01/09 13:59:02;;;;;;;1.93;1.30;;;11.00;40.20;;;;;;10524666;28;20230;-70
2023/01/09 14:04:36;;;;;;;2.63;1.17;;;11.00;40.00;;;;;;10529509;28;20246;-70
2023/01/09 14:09:47;;;;;;;4.00;1.10;;;11.00;40.20;;;;;;10529350;28;20231;-71
2023/01/09 14:14:53;;;;;;;1.27;1.00;;;11.00;40.40;;;;;;10528841;28;20273;-71
2023/01/09 14:19:58;;;;;;;2.10;1.10;;;11.00;40.40;;;;;;10527358;28;20246;-69
2023/01/09 14:25:08;;;;;;;2.73;1.20;;;11.00;40.80;;;;;;10524253;28;20242;-68
2023/01/09 14:30:30;;;;;;;2.30;1.10;;;11.00;40.50;;;;;;10528484;28;20691;-69
2023/01/09 14:35:40;;;;;;;2.00;1.03;;;11.00;39.60;;;;;;10528153;28;20594;-69
2023/01/09 14:40:48;;;;;;;1.90;1.10;;;11.00;39.90;;;;;;10527953;28;20251;-70
2023/01/09 14:45:59;;;;;;;2.57;1.50;;;11.00;39.60;;;;;;10529399;28;20237;-70
2023/01/09 14:51:07;;;;;;;4.30;2.23;;;11.00;39.60;;;;;;10527626;28;20235;-70
2023/01/09 14:56:26;;;;;;;4.50;3.00;;;11.00;40.60;;;;;;10527232;28;20239;-70
2023/01/09 15:01:32;;;;;;;2.40;1.60;;;11.00;39.50;;;;;;10527078;28;20707;-70
2023/01/09 15:06:40;;;;;;;2.47;1.73;;;10.90;40.00;;;;;;10526929;28;20240;-70
2023/01/09 15:11:43;;;;;;;3.43;1.60;;;10.90;40.20;;;;;;10522354;28;20742;-70
2023/01/09 15:16:48;;;;;;;2.37;1.60;;;10.90;40.60;;;;;;10523985;28;20231;-73
2023/01/09 15:22:02;;;;;;;4.10;2.00;;;10.90;40.10;;;;;;10522963;28;20251;-73
2023/01/09 15:27:14;;;;;;;3.50;3.00;;;10.80;39.20;;;;;;10517992;28;20238;-72
2023/01/09 15:32:23;;;;;;;6.10;1.87;;;10.90;39.40;;;;;;10517998;28;20807;-72
2023/01/09 15:37:30;;;;;;;3.23;1.43;;;10.80;39.60;;;;;;10516109;28;20842;-71
2023/01/09 15:42:56;;;;;;;3.23;2.40;;;10.80;40.00;;;;;;10507256;28;20722;-71
2023/01/09 15:48:21;;;;;;;3.60;2.20;;;10.80;40.10;;;;;;10503952;28;20710;-71
2023/01/09 15:53:26;;;;;;;2.80;1.27;;;10.80;39.30;;;;;;10499095;28;20699;-72
2023/01/09 15:58:33;;;;;;;2.10;1.63;;;10.80;40.00;;;;;;10501844;28;20223;-69
2023/01/09 16:03:38;;;;;;;3.13;2.00;;;10.80;39.50;;;;;;10503413;28;20914;-68
2023/01/09 16:08:48;;;;;;;2.80;1.40;;;10.80;39.70;;;;;;10502363;28;20646;-69
2023/01/09 16:13:52;;;;;;;2.03;1.77;;;10.80;39.90;;;;;;10502404;28;20230;-72
2023/01/09 16:18:58;;;;;;;2.60;1.10;;;10.70;40.10;;;;;;10505778;28;20543;-72
2023/01/09 16:24:05;;;;;;;1.77;1.60;;;10.70;39.80;;;;;;10510037;28;20231;-73
2023/01/09 16:29:33;;;;;;;1.93;1.80;;;10.70;40.00;;;;;;10511128;28;21023;-70
2023/01/09 16:34:42;;;;;;;8.13;6.53;;;10.60;39.50;;;;;;10517405;28;20434;-70
2023/01/09 16:40:28;;;;;;;11.23;8.53;;;10.60;39.40;;;;;;10511803;28;20228;-70
2023/01/09 16:45:34;;;;;;;3.57;2.40;;;10.60;39.30;;;;;;10516577;28;20783;-70
2023/01/09 16:50:39;;;;;;;2.77;2.37;;;10.50;39.80;;;;;;10521576;28;20743;-70
2023/01/09 16:55:42;;;;;;;2.80;2.13;;;10.40;40.00;;;;;;10510722;28;20235;-70
2023/01/09 17:00:46;;;;;;;2.60;2.10;;;10.30;40.20;;;;;;10517897;28;20234;-69
2023/01/09 17:05:54;;;;;;;2.73;2.00;;;10.30;40.20;;;;;;10526587;28;20237;-69
2023/01/09 17:10:57;;;;;;;2.50;1.67;;;10.20;40.10;;;;;;10521550;28;20223;-69
2023/01/09 17:16:00;;;;;;;1.30;1.20;;;10.20;40.10;;;;;;10528525;28;20228;-68
2023/01/09 17:21:05;;;;;;;2.50;1.43;;;10.20;40.10;;;;;;10533988;28;20234;-72
2023/01/09 17:31:37;;;;;;;2.40;1.47;;;10.20;40.10;;;;;;10523890;28;20231;-73
2023/01/09 17:36:44;;;;;;;1.30;1.20;;;10.20;40.20;;;;;;10528228;28;20220;-73
2023/01/09 17:41:47;;;;;;;1.50;1.10;;;10.20;40.10;;;;;;10534198;28;20273;-72
2023/01/09 17:46:50;;;;;;;1.23;0.90;;;10.20;40.10;;;;;;10534647;28;20285;-73
2023/01/09 17:51:54;;;;;;;2.67;1.80;;;10.20;40.30;;;;;;10531181;28;20309;-73
2023/01/09 17:56:58;;;;;;;1.40;1.30;;;10.20;41.50;;;;;;10530982;28;20239;-73
2023/01/09 18:02:02;;;;;;;2.63;1.50;;;10.10;40.90;;;;;;10531019;28;20227;-71
2023/01/09 18:07:06;;;;;;;1.30;1.20;;;10.00;41.00;;;;;;10532403;28;20236;-72
2023/01/09 18:12:10;;;;;;;1.57;1.47;;;10.00;41.00;;;;;;10530169;28;20220;-71
2023/01/09 18:17:13;;;;;;;2.00;1.60;;;9.90;41.90;;;;;;10529843;28;20235;-69
2023/01/09 18:22:17;;;;;;;1.83;1.33;;;9.90;41.90;;;;;;10531702;28;20232;-68
2023/01/09 18:27:20;;;;;;;2.47;2.27;;;9.80;42.00;;;;;;10531236;28;20258;-68
2023/01/09 18:32:24;;;;;;;4.30;3.70;;;9.80;42.10;;;;;;10529663;28;20636;-68
2023/01/09 18:37:28;;;;;;;3.40;2.90;;;9.70;42.00;;;;;;10538718;28;20284;-69
2023/01/09 18:42:31;;;;;;;3.60;3.30;;;9.70;42.10;;;;;;10539758;28;20582;-69
2023/01/09 18:47:34;;;;;;;3.03;2.60;;;9.70;42.10;;;;;;10538374;28;20273;-69
2023/01/09 18:52:39;;;;;;;1.80;1.70;;;9.60;42.00;;;;;;10535907;28;20250;-69
2023/01/09 18:57:42;;;;;;;6.23;4.73;;;9.40;42.30;;;;;;10530075;28;20239;-68
2023/01/09 19:02:45;;;;;;;4.67;2.87;;;9.40;42.50;;;;;;10527527;28;20242;-68
2023/01/09 19:07:50;;;;;;;1.80;1.67;;;9.30;42.60;;;;;;10529594;28;20228;-68
2023/01/09 19:12:53;;;;;;;2.40;2.17;;;9.20;43.10;;;;;;10529965;28;20282;-68
2023/01/09 19:17:56;;;;;;;1.87;1.60;;;9.10;43.10;;;;;;10521605;28;20236;-68
2023/01/09 19:23:00;;;;;;;4.87;3.03;;;9.00;43.20;;;;;;10527817;28;20290;-71
2023/01/09 19:28:04;;;;;;;6.27;4.20;;;9.00;43.40;;;;;;10523109;28;20227;-71
2023/01/09 19:33:07;;;;;;;3.00;2.30;;;8.90;43.20;;;;;;10526499;28;20222;-71
2023/01/09 19:38:12;;;;;;;2.23;1.67;;;8.80;43.20;;;;;;10527713;28;20248;-70
2023/01/09 19:43:24;;;;;;;2.10;1.90;;;8.80;43.40;;;;;;10517294;28;20247;-71
2023/01/09 19:48:29;;;;;;;3.33;1.70;;;8.80;43.30;;;;;;10510018;28;20254;-71
2023/01/09 19:53:35;;;;;;;2.63;1.80;;;8.80;43.40;;;;;;10517132;28;20235;-71
2023/01/09 19:58:38;;;;;;;3.03;1.77;;;8.80;43.60;;;;;;10514415;28;20232;-71
2023/01/09 20:03:44;;;;;;;3.27;2.13;;;8.80;43.50;;;;;;10514614;28;21068;-72
2023/01/09 20:08:51;;;;;;;2.07;1.87;;;8.80;43.40;;;;;;10513665;28;20604;-72
2023/01/09 20:13:56;;;;;;;2.10;1.77;;;8.80;43.30;;;;;;10520975;28;20224;-72
2023/01/09 20:19:02;;;;;;;1.70;1.60;;;8.80;43.10;;;;;;10529372;28;20235;-72
2023/01/09 20:24:08;;;;;;;2.30;1.77;;;8.80;43.20;;;;;;10529842;28;20231;-72
2023/01/09 20:29:11;;;;;;;1.77;1.40;;;8.80;43.20;;;;;;10535467;28;20240;-72
2023/01/09 20:34:15;;;;;;;1.67;1.50;;;8.70;43.00;;;;;;10530598;28;20243;-72
2023/01/09 20:39:19;;;;;;;3.20;1.80;;;8.70;43.00;;;;;;10537072;28;20236;-72
2023/01/09 20:44:23;;;;;;;1.50;1.40;;;8.70;43.10;;;;;;10541063;28;20242;-72
2023/01/09 20:49:26;;;;;;;1.30;1.20;;;8.70;43.10;;;;;;10540480;28;20246;-72
2023/01/09 20:54:30;;;;;;;2.37;1.37;;;8.70;43.20;;;;;;10535486;28;20223;-72
2023/01/09 20:59:33;;;;;;;1.30;0.90;;;8.70;43.30;;;;;;10531327;28;20248;-72
2023/01/09 21:04:36;;;;;;;1.90;1.37;;;8.70;43.20;;;;;;10538616;28;20238;-72
2023/01/09 21:09:41;;;;;;;2.23;1.50;;;8.70;43.30;;;;;;10538161;28;20284;-68
2023/01/09 21:14:44;;;;;;;1.63;1.33;;;8.70;43.40;;;;;;10530829;28;20624;-68
2023/01/09 21:19:48;;;;;;;1.50;1.40;;;8.70;43.30;;;;;;10520642;28;20236;-69
2023/01/09 21:24:53;;;;;;;1.23;1.00;;;8.70;43.20;;;;;;10532178;28;20789;-69
2023/01/09 21:29:56;;;;;;;1.60;1.00;;;8.70;43.20;;;;;;10530427;28;20231;-69
2023/01/09 21:35:03;;;;;;;1.40;1.20;;;8.80;43.30;;;;;;10528506;28;20224;-69
2023/01/09 21:40:12;;;;;;;3.60;1.20;;;8.80;43.30;;;;;;10517984;28;20231;-69
2023/01/09 21:50:37;;;;;;;2.17;1.20;;;8.80;43.30;;;;;;10525808;28;20215;-69
2023/01/09 21:55:41;;;;;;;1.27;1.10;;;8.80;43.40;;;;;;10517129;28;20603;-71
2023/01/09 22:00:44;;;;;;;1.37;1.00;;;8.60;43.20;;;;;;10516790;28;20238;-71
2023/01/09 22:05:48;;;;;;;1.87;1.20;;;8.80;43.50;;;;;;10518785;28;20867;-71
2023/01/09 22:10:58;;;;;;;1.50;1.10;;;8.70;43.60;;;;;;10522570;28;21291;-71
2023/01/09 22:16:06;;;;;;;2.67;1.30;;;8.70;43.90;;;;;;10527258;28;20231;-71
2023/01/09 22:21:09;;;;;;;2.47;1.30;;;8.70;43.90;;;;;;10526633;28;20216;-71
2023/01/09 22:26:15;;;;;;;2.07;1.17;;;8.70;43.60;;;;;;10526346;28;20282;-70
2023/01/09 22:31:20;;;;;;;2.33;1.37;;;8.60;43.90;;;;;;10529292;28;20643;-71
2023/01/09 22:36:25;;;;;;;1.57;1.30;;;8.60;43.80;;;;;;10530229;28;20242;-71
2023/01/09 22:41:30;;;;;;;1.57;1.37;;;8.60;43.90;;;;;;10530689;28;20239;-70
2023/01/09 22:46:33;;;;;;;1.03;0.97;;;8.60;44.00;;;;;;10530883;28;20284;-71
2023/01/09 22:51:36;;;;;;;1.37;1.07;;;8.60;43.80;;;;;;10528904;28;20568;-71
2023/01/09 22:56:41;;;;;;;1.37;1.00;;;8.60;43.60;;;;;;10529099;28;20281;-71
2023/01/09 23:01:44;;;;;;;2.00;1.00;;;8.60;43.80;;;;;;10527113;28;20266;-70
2023/01/09 23:06:47;;;;;;;1.10;0.90;;;8.60;43.70;;;;;;10530947;28;21133;-71
2023/01/09 23:12:04;;;;;;;0.97;0.87;;;8.60;43.70;;;;;;10527096;28;20224;-71
2023/01/09 23:17:09;;;;;;;1.23;0.90;;;8.60;43.80;;;;;;10527126;28;20231;-71
2023/01/09 23:22:13;;;;;;;0.90;0.90;;;8.60;43.80;;;;;;10591547;22;20310;-79
2023/01/09 23:27:17;;;;;;;0.90;0.90;;;8.60;43.80;;;;;;10551290;27;20238;-79
2023/01/09 23:32:20;;;;;;;1.00;0.70;;;8.60;43.70;;;;;;10541212;28;20241;-78
2023/01/09 23:37:23;;;;;;;1.23;0.90;;;8.70;43.80;;;;;;10540795;28;20277;-78
2023/01/09 23:47:48;;;;;;;1.10;1.00;;;8.60;43.70;;;;;;10539976;28;20242;-78
2023/01/09 23:52:51;;;;;;;1.53;1.00;;;8.60;43.60;;;;;;10536918;28;20235;-78
2023/01/09 23:57:56;;;;;;;0.80;0.80;;;8.60;43.70;;;;;;10542796;28;20901;-79
